Time;durP1;ratioP1;P1;durP2;ratioP2;P2;SDS_P1;SDS_P2;PMS_P1;PMS_P2;Temp;Humidity;BMP_temperature;BMP_pressure;BME280_temperature;BME280_humidity;BME280_pressure;Samples;Min_cycle;Max_cycle;Signal;HPM_P1;HPM_P2
2021/09/28 00:01:39;;;;;;;32.48;18.65;;;;;;;15.19;77.75;100893.46;1592068;90;21141;-77
2021/09/28 00:04:05;;;;;;;33.35;17.73;;;;;;;15.19;77.75;100893.46;1591926;90;21063;-77
2021/09/28 00:06:31;;;;;;;29.37;16.60;;;;;;;15.28;77.91;100904.92;1592084;90;21051;-77
2021/09/28 00:08:57;;;;;;;26.00;16.77;;;;;;;15.18;78.02;100888.27;1591797;90;21047;-77
2021/09/28 00:11:23;;;;;;;32.60;18.40;;;;;;;15.15;77.95;100891.33;1592047;90;21191;-77
2021/09/28 00:13:50;;;;;;;23.05;17.25;;;;;;;15.23;78.00;100908.70;1592245;90;21182;-77
2021/09/28 00:16:16;;;;;;;30.77;20.17;;;;;;;15.19;78.22;100906.90;1591923;90;21519;-77
2021/09/28 00:18:42;;;;;;;34.67;21.35;;;;;;;15.19;78.22;100906.90;1539501;91;21662;-77
2021/09/28 00:21:08;;;;;;;30.23;19.67;;;;;;;15.17;78.07;100916.98;1563374;91;21649;-77
2021/09/28 00:23:33;;;;;;;30.75;19.42;;;;;;;15.12;78.09;100915.89;1563509;91;21982;-77
2021/09/28 00:26:00;;;;;;;38.75;21.93;;;;;;;15.07;78.12;100915.09;1563559;91;21098;-77
2021/09/28 00:28:28;;;;;;;31.95;18.95;;;;;;;14.97;78.16;100905.98;1581367;90;21053;-77
2021/09/28 00:30:57;;;;;;;27.20;17.07;;;;;;;14.81;78.20;100904.00;1588386;89;21506;-77
2021/09/28 00:33:25;;;;;;;30.48;19.10;;;;;;;14.81;78.20;100904.00;1588689;89;21053;-77
2021/09/28 00:35:51;;;;;;;30.25;19.15;;;;;;;14.74;78.41;100901.20;1588088;90;21263;-77
2021/09/28 00:38:17;;;;;;;33.08;20.32;;;;;;;14.73;78.44;100900.05;1588042;90;21021;-77
2021/09/28 00:40:43;;;;;;;37.93;21.90;;;;;;;14.69;78.61;100894.73;1588245;90;21045;-77
2021/09/28 00:43:09;;;;;;;36.30;21.52;;;;;;;14.69;78.61;100894.73;1588335;90;21038;-77
2021/09/28 00:45:35;;;;;;;34.43;19.77;;;;;;;14.65;78.52;100900.97;1588057;89;21561;-77
2021/09/28 00:48:01;;;;;;;33.95;21.65;;;;;;;14.61;78.58;100898.83;1587964;90;22051;-77
2021/09/28 00:50:27;;;;;;;36.68;21.95;;;;;;;14.58;78.63;100900.55;1586706;90;21033;-77
2021/09/28 00:52:53;;;;;;;33.67;22.15;;;;;;;14.56;78.68;100898.06;1588439;90;21065;-77
2021/09/28 00:55:20;;;;;;;35.40;20.72;;;;;;;14.54;78.76;100904.61;1588057;90;21070;-77
2021/09/28 00:57:46;;;;;;;36.60;22.42;;;;;;;14.41;78.83;100879.25;1588372;90;21584;-76
2021/09/28 01:00:12;;;;;;;33.53;21.50;;;;;;;14.41;78.83;100879.25;1588361;89;21013;-76
2021/09/28 01:02:39;;;;;;;32.00;22.07;;;;;;;14.53;78.92;100898.94;1588345;90;21610;-76
2021/09/28 01:05:07;;;;;;;30.68;20.77;;;;;;;14.53;78.94;100901.08;1588096;90;21101;-76
2021/09/28 01:07:33;;;;;;;32.80;21.85;;;;;;;14.54;79.01;100897.89;1588115;89;21061;-77
2021/09/28 01:09:59;;;;;;;37.35;22.80;;;;;;;14.53;79.04;100900.28;1588213;90;20998;-77
2021/09/28 01:12:25;;;;;;;36.50;20.88;;;;;;;14.54;79.12;100892.02;1588050;89;21251;-77
2021/09/28 01:14:51;;;;;;;33.55;22.05;;;;;;;14.56;79.16;100894.53;1579728;90;21140;-77
2021/09/28 01:17:18;;;;;;;31.90;21.85;;;;;;;14.56;79.22;100895.88;1563214;90;21061;-77
2021/09/28 01:19:46;;;;;;;32.65;21.93;;;;;;;14.55;79.28;100893.70;1584847;90;21085;-77
2021/09/28 01:22:14;;;;;;;35.95;22.95;;;;;;;14.58;79.34;100901.88;1606485;89;21093;-77
2021/09/28 01:24:42;;;;;;;36.42;22.87;;;;;;;14.60;79.40;100903.89;1612362;89;21447;-77
2021/09/28 01:27:08;;;;;;;37.23;22.82;;;;;;;14.64;79.42;100907.85;1612752;88;20979;-77
2021/09/28 01:29:34;;;;;;;35.58;23.15;;;;;;;14.69;79.55;100910.83;1612240;89;21073;-77
2021/09/28 01:34:46;;;;;;;35.03;24.50;;;;;;;14.79;79.56;100909.55;1838673;77;28101;-78
2021/09/28 01:37:12;;;;;;;31.55;22.07;;;;;;;14.83;79.65;100912.70;1826812;78;21013;-78
2021/09/28 01:39:38;;;;;;;29.45;21.52;;;;;;;14.84;79.72;100917.05;1826782;78;21115;-78
2021/09/28 01:42:04;;;;;;;36.77;22.27;;;;;;;14.77;79.97;100913.44;1827012;78;21045;-78
2021/09/28 01:44:34;;;;;;;29.57;21.07;;;;;;;14.77;79.97;100913.44;1826855;78;20973;-78
2021/09/28 01:46:58;;;;;;;27.45;20.12;;;;;;;14.79;79.94;100914.08;1826931;78;21060;-77
2021/09/28 01:49:24;;;;;;;27.42;21.77;;;;;;;14.77;80.14;100917.47;1828861;77;21002;-78
2021/09/28 01:51:50;;;;;;;31.33;22.45;;;;;;;14.77;80.14;100917.47;1826641;78;21636;-77
2021/09/28 01:54:16;;;;;;;31.85;21.23;;;;;;;14.77;80.10;100919.65;1826989;78;20919;-77
2021/09/28 01:56:42;;;;;;;30.05;21.50;;;;;;;14.76;80.12;100921.16;1790537;80;20923;-78
2021/09/28 01:59:08;;;;;;;28.15;20.65;;;;;;;14.78;80.14;100930.69;1790672;80;20987;-78
2021/09/28 02:01:35;;;;;;;37.93;21.97;;;;;;;14.77;80.20;100921.50;1790596;80;21050;-78
2021/09/28 02:04:01;;;;;;;32.40;21.73;;;;;;;14.78;80.22;100928.52;1790581;79;20982;-77
2021/09/28 02:06:27;;;;;;;34.45;22.27;;;;;;;14.78;80.22;100928.52;1790269;79;21752;-78
2021/09/28 02:08:53;;;;;;;34.65;22.67;;;;;;;14.78;80.27;100923.14;1790499;79;21519;-78
2021/09/28 02:11:20;;;;;;;31.25;23.80;;;;;;;14.79;80.29;100931.53;1790385;80;20979;-77
2021/09/28 02:13:46;;;;;;;29.95;23.25;;;;;;;14.80;80.31;100923.81;1790322;79;21046;-77
2021/09/28 02:16:12;;;;;;;37.23;23.57;;;;;;;14.80;80.33;100923.81;1812588;78;21225;-77
2021/09/28 02:18:38;;;;;;;31.97;22.95;;;;;;;14.66;80.60;100903.16;1764551;80;21033;-77
2021/09/28 02:21:04;;;;;;;35.28;24.15;;;;;;;14.66;80.60;100903.16;1771591;79;21047;-77
2021/09/28 02:23:30;;;;;;;32.28;23.42;;;;;;;14.73;80.43;100922.88;1771833;81;21032;-77
2021/09/28 02:25:56;;;;;;;33.08;24.52;;;;;;;14.71;80.47;100924.89;1776761;78;21347;-77
2021/09/28 02:28:22;;;;;;;34.73;23.25;;;;;;;14.71;80.51;100922.21;1793652;80;21886;-78
2021/09/28 02:30:48;;;;;;;30.57;23.30;;;;;;;14.67;80.54;100927.11;1793450;78;21057;-78
2021/09/28 02:33:14;;;;;;;33.30;23.30;;;;;;;14.65;80.58;100922.95;1826752;78;21060;-78
2021/09/28 02:35:40;;;;;;;32.38;23.42;;;;;;;14.61;80.62;100927.86;1828589;77;20966;-78
2021/09/28 02:38:06;;;;;;;37.03;24.60;;;;;;;14.61;80.67;100933.73;1829351;78;20962;-77
2021/09/28 02:40:32;;;;;;;37.80;24.92;;;;;;;14.58;80.71;100928.73;1829025;78;21151;-77
2021/09/28 02:43:00;;;;;;;34.98;25.50;;;;;;;14.57;80.73;100932.42;1829253;78;21009;-78
2021/09/28 02:45:27;;;;;;;35.63;23.57;;;;;;;14.53;80.88;100931.95;1828808;78;20977;-78
2021/09/28 02:47:53;;;;;;;30.45;22.80;;;;;;;14.53;80.88;100931.95;1818597;78;21057;-78
2021/09/28 02:50:19;;;;;;;37.13;26.07;;;;;;;14.33;80.86;100907.45;1796092;78;21006;-78
2021/09/28 02:52:45;;;;;;;36.35;27.13;;;;;;;14.33;80.86;100907.45;1795800;79;21225;-78
2021/09/28 02:55:11;;;;;;;36.25;25.65;;;;;;;14.42;80.91;100923.86;1796183;79;20919;-78
2021/09/28 02:57:37;;;;;;;40.58;27.80;;;;;;;14.39;80.96;100921.52;1795160;79;21021;-78
2021/09/28 03:00:06;;;;;;;38.98;27.58;;;;;;;14.39;81.00;100918.83;1795983;79;21541;-78
2021/09/28 03:02:32;;;;;;;34.40;25.97;;;;;;;14.42;81.07;100925.20;1796313;79;21462;-78
2021/09/28 03:04:58;;;;;;;39.80;25.68;;;;;;;14.43;81.10;100916.62;1795994;79;21784;-77
2021/09/28 03:07:24;;;;;;;41.53;25.40;;;;;;;14.39;81.12;100918.83;1795947;78;20965;-77
2021/09/28 03:09:50;;;;;;;39.35;26.25;;;;;;;14.38;81.16;100927.08;1796176;79;21025;-77
2021/09/28 03:12:16;;;;;;;36.50;24.15;;;;;;;14.36;81.20;100920.54;1796024;80;21037;-78
2021/09/28 03:14:42;;;;;;;33.95;25.50;;;;;;;14.36;81.25;100921.05;1795888;79;20899;-77
2021/09/28 03:17:08;;;;;;;34.78;23.35;;;;;;;14.31;81.30;100924.27;1796241;78;20979;-77
2021/09/28 03:19:34;;;;;;;32.33;24.12;;;;;;;14.28;81.34;100927.31;1825488;78;21028;-77
2021/09/28 03:22:00;;;;;;;37.42;23.85;;;;;;;14.25;81.36;100924.97;1797867;78;20990;-77
2021/09/28 03:24:26;;;;;;;37.08;25.30;;;;;;;14.26;81.39;100928.48;1796124;79;20998;-77
2021/09/28 03:26:52;;;;;;;36.40;24.30;;;;;;;14.23;81.36;100931.03;1795902;79;21477;-77
2021/09/28 03:29:18;;;;;;;31.93;23.90;;;;;;;14.23;81.36;100931.03;1796057;79;21430;-78
2021/09/28 03:31:44;;;;;;;35.03;26.55;;;;;;;14.23;81.52;100930.19;1795942;79;20989;-78
2021/09/28 03:34:10;;;;;;;42.53;27.73;;;;;;;14.24;81.56;100930.53;1793245;79;21046;-77
2021/09/28 03:36:37;;;;;;;64.92;32.80;;;;;;;14.20;81.59;100922.00;1755503;81;21050;-77
2021/09/28 03:39:03;;;;;;;37.45;24.85;;;;;;;14.24;81.63;100935.39;1791039;80;21388;-78
2021/09/28 03:41:29;;;;;;;42.65;25.10;;;;;;;14.21;81.63;100931.73;1755774;81;21109;-78
2021/09/28 03:43:55;;;;;;;48.90;29.50;;;;;;;14.19;81.67;100935.08;1790969;80;20990;-78
2021/09/28 03:46:21;;;;;;;43.15;28.20;;;;;;;14.18;81.72;100936.09;1755643;81;21601;-78
2021/09/28 03:48:47;;;;;;;38.20;25.48;;;;;;;14.19;81.76;100932.41;1790568;78;20970;-77
2021/09/28 03:51:13;;;;;;;42.53;26.07;;;;;;;14.21;81.79;100937.59;1755868;81;21110;-78
2021/09/28 03:53:39;;;;;;;40.10;25.52;;;;;;;14.18;81.80;100937.43;1790902;78;21006;-77
2021/09/28 03:56:05;;;;;;;38.88;24.52;;;;;;;14.15;81.83;100933.77;1755481;81;21605;-77
2021/09/28 03:58:31;;;;;;;39.30;27.05;;;;;;;14.14;81.86;100932.63;1790872;80;21041;-77
2021/09/28 04:00:58;;;;;;;38.53;25.62;;;;;;;14.14;81.93;100940.17;1755496;81;21070;-77
2021/09/28 04:03:24;;;;;;;41.23;25.77;;;;;;;14.17;81.96;100945.67;1790772;80;21463;-78
2021/09/28 04:05:50;;;;;;;40.30;25.95;;;;;;;14.17;82.01;100945.17;1755838;80;21970;-78
2021/09/28 04:08:16;;;;;;;44.10;27.65;;;;;;;14.17;82.04;100945.17;1790880;80;20986;-78
2021/09/28 04:10:42;;;;;;;42.80;27.00;;;;;;;14.16;82.07;100948.02;1757855;80;20990;-77
2021/09/28 04:13:09;;;;;;;65.00;34.08;;;;;;;14.15;82.10;100953.05;1790603;80;21042;-78
2021/09/28 04:15:39;;;;;;;68.60;36.40;;;;;;;14.16;82.14;100959.59;1755558;81;21023;-77
2021/09/28 04:18:07;;;;;;;78.83;38.83;;;;;;;14.16;82.18;100958.75;1790920;80;21002;-77
2021/09/28 04:20:36;;;;;;;77.62;38.95;;;;;;;14.17;82.21;100957.24;1755664;80;21048;-77
2021/09/28 04:23:03;;;;;;;71.75;35.52;;;;;;;14.19;82.25;100959.23;1790805;80;20989;-77
2021/09/28 04:25:29;;;;;;;84.28;43.63;;;;;;;14.22;82.29;100963.39;1755721;81;21432;-77
2021/09/28 04:27:55;;;;;;;95.85;47.17;;;;;;;14.23;82.33;100964.56;1790760;80;21065;-77
2021/09/28 04:30:21;;;;;;;86.82;43.83;;;;;;;14.27;82.39;100965.87;1755628;81;21073;-78
2021/09/28 04:32:47;;;;;;;89.40;45.08;;;;;;;14.30;82.44;100969.54;1790606;80;21041;-77
2021/09/28 04:35:13;;;;;;;94.07;45.63;;;;;;;14.31;82.46;100968.53;1761815;79;21018;-77
2021/09/28 04:37:40;;;;;;;94.22;47.40;;;;;;;14.34;82.50;100970.05;1792890;79;20978;-77
2021/09/28 04:40:07;;;;;;;96.70;48.63;;;;;;;14.34;82.54;100964.17;1792987;80;21514;-78
2021/09/28 04:42:33;;;;;;;88.78;42.03;;;;;;;14.35;82.57;100966.36;1773129;80;21176;-78
2021/09/28 04:44:59;;;;;;;83.87;40.60;;;;;;;14.34;82.61;100970.88;1792639;80;20962;-78
2021/09/28 04:47:25;;;;;;;80.62;40.60;;;;;;;14.33;82.63;100969.17;1790868;80;21070;-78
2021/09/28 04:49:51;;;;;;;87.72;40.20;;;;;;;14.32;82.68;100968.84;1775587;79;21456;-78
2021/09/28 04:52:17;;;;;;;84.83;39.70;;;;;;;14.32;82.73;100970.71;1799795;78;21483;-78
2021/09/28 04:54:43;;;;;;;87.22;41.70;;;;;;;14.33;82.77;100969.67;1764760;81;21646;-78
2021/09/28 04:57:09;;;;;;;84.42;40.40;;;;;;;14.32;82.81;100969.37;1794840;78;21000;-77
2021/09/28 04:59:35;;;;;;;76.90;39.25;;;;;;;14.31;82.84;100969.88;1773792;80;21713;-77
2021/09/28 05:02:01;;;;;;;85.03;41.25;;;;;;;14.32;82.90;100974.20;1812047;78;21013;-77
2021/09/28 05:04:27;;;;;;;93.42;42.13;;;;;;;14.32;82.94;100972.86;1782557;79;21295;-78
2021/09/28 05:06:53;;;;;;;89.45;45.35;;;;;;;14.33;82.97;100973.70;1789085;80;21111;-77
2021/09/28 05:09:19;;;;;;;82.22;41.68;;;;;;;14.32;83.00;100971.52;1792102;79;20988;-78
2021/09/28 05:11:45;;;;;;;94.60;43.68;;;;;;;14.33;83.06;100973.20;1825349;78;21502;-77
2021/09/28 05:14:11;;;;;;;85.83;42.45;;;;;;;14.34;83.11;100983.46;1792461;80;20934;-77
2021/09/28 05:16:37;;;;;;;87.10;42.73;;;;;;;14.34;83.14;100980.28;1792755;80;20875;-77
2021/09/28 05:19:05;;;;;;;87.02;43.28;;;;;;;14.34;83.17;100978.94;1825288;78;21034;-77
2021/09/28 05:21:31;;;;;;;102.82;46.58;;;;;;;14.36;83.21;100985.45;1825085;78;20896;-78
2021/09/28 05:23:57;;;;;;;84.65;42.50;;;;;;;14.37;83.24;100985.28;1792665;80;21013;-77
2021/09/28 05:26:24;;;;;;;91.20;44.27;;;;;;;14.38;83.28;100988.30;1793209;80;20978;-77
2021/09/28 05:28:50;;;;;;;84.15;44.18;;;;;;;14.40;83.31;100990.78;1792471;80;20966;-77
2021/09/28 05:31:17;;;;;;;88.67;44.93;;;;;;;14.43;83.36;100989.91;1792684;80;21084;-78
2021/09/28 05:33:43;;;;;;;90.17;44.45;;;;;;;14.45;83.37;100988.41;1792591;80;21014;-77
2021/09/28 05:36:09;;;;;;;85.12;42.75;;;;;;;14.45;83.41;100994.61;1760862;79;20990;-77
2021/09/28 05:38:35;;;;;;;87.62;44.85;;;;;;;14.46;83.44;100993.58;1764833;81;20939;-78
2021/09/28 05:41:06;;;;;;;86.57;43.33;;;;;;;14.46;83.47;101001.62;1772637;80;21018;-78
2021/09/28 05:43:29;;;;;;;86.12;43.73;;;;;;;14.48;83.50;101003.64;1773176;80;21463;-78
2021/09/28 05:45:55;;;;;;;79.85;42.65;;;;;;;14.50;83.53;100998.91;1773173;80;20970;-77
2021/09/28 05:48:21;;;;;;;77.65;41.55;;;;;;;14.52;83.56;101004.62;1773188;80;21511;-78
2021/09/28 05:50:47;;;;;;;74.72;40.58;;;;;;;14.52;83.61;101001.94;1773119;81;20991;-78
2021/09/28 05:53:13;;;;;;;80.47;41.68;;;;;;;14.50;83.60;101012.34;1773085;81;21026;-77
2021/09/28 05:55:39;;;;;;;87.57;44.23;;;;;;;14.50;83.64;101020.39;1773320;81;21142;-78
2021/09/28 05:58:05;;;;;;;83.52;44.40;;;;;;;14.54;83.68;101021.36;1773339;80;21007;-78
2021/09/28 06:00:31;;;;;;;78.35;43.13;;;;;;;14.57;83.67;101020.49;1773470;81;20948;-77
2021/09/28 06:02:57;;;;;;;78.92;43.73;;;;;;;14.61;83.71;101025.00;1773173;80;21484;-77
2021/09/28 06:05:23;;;;;;;84.22;46.20;;;;;;;14.62;83.72;101026.67;1773493;80;21051;-78
2021/09/28 06:07:49;;;;;;;83.55;44.50;;;;;;;14.62;83.71;101026.17;1768888;80;21127;-78
2021/09/28 06:10:15;;;;;;;86.75;45.50;;;;;;;14.59;83.75;101023.02;1773354;81;20855;-77
2021/09/28 06:12:41;;;;;;;86.87;44.93;;;;;;;14.57;83.75;101033.08;1773306;81;21002;-77
2021/09/28 06:15:08;;;;;;;90.22;43.80;;;;;;;14.57;83.81;101025.86;1773150;81;20987;-77
2021/09/28 06:17:34;;;;;;;89.67;46.02;;;;;;;14.55;83.81;101021.70;1773366;80;21128;-78
2021/09/28 06:20:00;;;;;;;87.20;44.13;;;;;;;14.54;83.84;101028.91;1771260;80;21460;-77
2021/09/28 06:22:26;;;;;;;94.22;46.28;;;;;;;14.53;83.88;101025.89;1773666;81;21486;-78
2021/09/28 06:24:55;;;;;;;88.07;44.23;;;;;;;14.51;83.88;101026.59;1773523;81;20983;-78
2021/09/28 06:27:22;;;;;;;92.30;45.98;;;;;;;14.49;83.91;101028.10;1771000;81;21538;-78
2021/09/28 06:29:48;;;;;;;85.12;44.77;;;;;;;14.49;83.96;101027.30;1773353;80;21030;-78
2021/09/28 06:32:16;;;;;;;85.87;46.13;;;;;;;14.52;83.99;101035.48;1773494;80;21961;-78
2021/09/28 06:34:42;;;;;;;92.95;45.28;;;;;;;14.58;83.86;101034.25;1782154;79;21077;-78
2021/09/28 06:37:08;;;;;;;88.10;44.27;;;;;;;14.58;83.86;101034.25;1805465;79;21002;-77
2021/09/28 06:39:34;;;;;;;77.10;42.48;;;;;;;14.61;84.08;101029.02;1805727;79;21487;-77
2021/09/28 06:42:00;;;;;;;77.08;41.85;;;;;;;14.59;84.08;101023.85;1805697;79;21022;-77
2021/09/28 06:44:28;;;;;;;84.17;42.93;;;;;;;14.61;84.11;101019.63;1805687;79;21049;-78
2021/09/28 06:46:55;;;;;;;81.80;43.17;;;;;;;14.63;84.15;101027.85;1828403;78;20950;-78
2021/09/28 06:49:21;;;;;;;86.95;45.17;;;;;;;14.68;84.18;101028.62;1797267;79;20987;-78
2021/09/28 06:51:47;;;;;;;88.60;45.48;;;;;;;14.76;84.23;101031.25;1828714;78;20955;-77
2021/09/28 06:54:13;;;;;;;80.15;44.13;;;;;;;14.84;84.25;101035.22;1797026;79;21058;-77
2021/09/28 06:56:41;;;;;;;76.37;43.80;;;;;;;14.92;84.24;101035.12;1826782;78;21140;-78
2021/09/28 06:59:10;;;;;;;77.75;43.35;;;;;;;15.00;84.28;101040.42;1765407;81;21046;-77
2021/09/28 07:01:39;;;;;;;81.30;44.95;;;;;;;15.08;84.29;101043.03;1796127;79;21559;-77
2021/09/28 07:04:05;;;;;;;79.22;44.30;;;;;;;15.14;84.31;101049.01;1759628;80;21465;-77
2021/09/28 07:06:31;;;;;;;69.85;40.65;;;;;;;15.16;84.33;101046.98;1765714;81;21490;-78
2021/09/28 07:08:57;;;;;;;73.52;41.23;;;;;;;15.13;84.36;101049.21;1796106;79;21873;-78
2021/09/28 07:11:23;;;;;;;75.90;41.50;;;;;;;15.13;84.36;101049.21;1769068;79;21463;-77
2021/09/28 07:13:49;;;;;;;70.05;40.73;;;;;;;15.13;84.39;101051.36;1816064;78;21568;-78
2021/09/28 07:16:16;;;;;;;73.28;41.45;;;;;;;15.16;84.40;101052.36;1787621;79;20971;-77
2021/09/28 07:18:42;;;;;;;71.60;42.10;;;;;;;15.23;84.25;101055.98;1812198;77;21043;-77
2021/09/28 07:21:08;;;;;;;75.47;43.10;;;;;;;15.23;84.25;101055.98;1795296;79;21312;-77
2021/09/28 07:23:34;;;;;;;80.85;46.18;;;;;;;15.33;84.55;101055.20;1765504;81;20991;-77
2021/09/28 07:26:00;;;;;;;78.42;45.63;;;;;;;15.46;84.47;101058.06;1795942;79;20962;-77
2021/09/28 07:28:26;;;;;;;78.92;44.75;;;;;;;15.47;84.44;101040.93;1795773;79;20997;-77
2021/09/28 07:30:52;;;;;;;69.90;40.30;;;;;;;15.71;84.43;101059.16;1812932;78;20998;-77
2021/09/28 07:33:19;;;;;;;65.40;40.58;;;;;;;15.76;84.42;101056.75;1779279;79;21118;-76
2021/09/28 07:35:45;;;;;;;67.42;41.42;;;;;;;15.75;84.41;101053.73;1799346;78;21009;-78
2021/09/28 07:38:12;;;;;;;68.45;40.05;;;;;;;15.84;84.48;101057.97;1783878;78;21656;-79
2021/09/28 07:40:40;;;;;;;68.57;39.05;;;;;;;15.89;84.45;101055.56;1748609;80;21045;-78
2021/09/28 07:43:06;;;;;;;67.65;40.90;;;;;;;15.90;84.42;101054.55;1793303;79;21281;-79
2021/09/28 07:45:32;;;;;;;69.35;42.40;;;;;;;15.93;84.44;101058.20;1824182;77;21486;-74
2021/09/28 07:47:58;;;;;;;71.65;42.53;;;;;;;16.03;84.44;101065.97;1772339;79;20976;-75
2021/09/28 07:50:24;;;;;;;68.40;42.40;;;;;;;16.14;84.41;101065.48;1796153;78;21065;-75
2021/09/28 07:52:50;;;;;;;67.67;41.63;;;;;;;16.20;84.39;101073.63;1771808;79;20967;-75
2021/09/28 07:55:16;;;;;;;69.15;42.15;;;;;;;16.26;84.36;101084.97;1802828;78;21028;-75
2021/09/28 07:57:42;;;;;;;68.45;40.63;;;;;;;16.30;84.33;101088.95;1785883;79;21295;-75
2021/09/28 08:00:10;;;;;;;73.80;42.45;;;;;;;16.34;84.33;101082.17;1789062;79;21002;-75
2021/09/28 08:02:39;;;;;;;66.82;41.65;;;;;;;16.39;84.32;101079.75;1773686;79;21475;-75
2021/09/28 08:05:08;;;;;;;66.60;40.90;;;;;;;16.39;84.27;101083.79;1768025;79;21053;-75
2021/09/28 08:07:34;;;;;;;67.65;40.80;;;;;;;16.36;84.26;101088.19;1796081;78;21462;-75
2021/09/28 08:10:00;;;;;;;69.87;41.92;;;;;;;16.37;84.28;101094.41;1787880;80;21380;-75
2021/09/28 08:12:26;;;;;;;68.45;40.48;;;;;;;16.47;84.29;101096.27;1825030;78;20932;-75
2021/09/28 08:14:53;;;;;;;73.60;42.50;;;;;;;16.52;84.26;101099.23;1822060;78;21011;-75
2021/09/28 08:17:20;;;;;;;67.17;42.05;;;;;;;16.52;84.21;101097.89;1789170;80;21018;-75
2021/09/28 08:19:49;;;;;;;67.15;39.73;;;;;;;16.50;84.19;101102.11;1786511;80;21030;-75
2021/09/28 08:22:14;;;;;;;68.92;42.53;;;;;;;16.53;84.19;101104.12;1792374;79;21383;-75
2021/09/28 08:24:42;;;;;;;69.12;41.88;;;;;;;16.59;84.17;101108.77;1786354;79;20990;-75
2021/09/28 08:29:58;;;;;;;69.50;44.60;;;;;;;16.67;84.10;101112.69;1804859;78;22053;-74
2021/09/28 08:32:25;;;;;;;70.32;44.33;;;;;;;16.68;84.10;101104.91;1792580;80;21065;-75
2021/09/28 08:34:51;;;;;;;73.57;43.92;;;;;;;16.69;84.03;101110.11;1786974;79;21629;-74
2021/09/28 08:37:18;;;;;;;70.12;43.28;;;;;;;16.70;84.02;101116.34;1757723;81;21033;-75
2021/09/28 08:39:45;;;;;;;65.00;42.70;;;;;;;16.67;83.98;101115.37;1767613;81;21532;-75
2021/09/28 08:42:12;;;;;;;75.20;47.60;;;;;;;16.69;83.93;101118.70;1779789;80;21013;-74
2021/09/28 08:44:37;;;;;;;79.15;47.30;;;;;;;16.70;83.87;101121.72;1731878;81;21018;-75
2021/09/28 08:47:04;;;;;;;69.75;45.17;;;;;;;16.70;83.87;101113.64;1735166;81;21107;-75
2021/09/28 08:49:30;;;;;;;75.57;46.30;;;;;;;16.67;83.89;101120.25;1761454;81;21015;-75
2021/09/28 08:51:57;;;;;;;73.85;46.00;;;;;;;16.66;83.85;101115.88;1762157;80;21042;-74
2021/09/28 08:54:23;;;;;;;75.55;47.90;;;;;;;16.71;83.83;101116.66;1777982;80;20990;-74
2021/09/28 08:56:49;;;;;;;69.40;45.67;;;;;;;16.72;83.79;101114.27;1767987;80;21757;-75
2021/09/28 08:59:15;;;;;;;73.90;47.05;;;;;;;16.76;83.76;101115.56;1760000;81;21097;-74
2021/09/28 09:02:05;;;;;;;73.02;46.53;;;;;;;16.80;83.69;101119.54;1774337;78;21053;-74
2021/09/28 09:04:27;;;;;;;76.95;48.23;;;;;;;16.84;83.68;101115.44;1765591;80;21038;-74
2021/09/28 09:06:54;;;;;;;76.45;47.62;;;;;;;16.88;83.61;101122.11;1777520;80;21034;-74
2021/09/28 09:09:22;;;;;;;81.12;49.27;;;;;;;16.88;83.58;101119.42;1777660;80;21059;-74
2021/09/28 09:11:50;;;;;;;78.30;47.73;;;;;;;16.89;83.61;101126.45;1765741;80;21143;-74
2021/09/28 09:14:23;;;;;;;85.42;47.67;;;;;;;16.89;83.59;101121.90;1772279;80;21530;-73
2021/09/28 09:16:52;;;;;;;81.85;50.05;;;;;;;16.83;83.55;101130.77;1755401;81;21086;-77
2021/09/28 09:19:24;;;;;;;;;;;;;;;16.87;83.62;101131.21;1764728;80;20999;-79
2021/09/28 09:21:59;;;;;;;75.87;45.80;;;;;;;16.95;83.60;101131.09;1770255;78;20156;-79
2021/09/28 09:24:47;;;;;;;79.72;48.55;;;;;;;16.98;83.54;101135.58;1760985;80;21133;-79
2021/09/28 09:27:19;;;;;;;75.42;48.60;;;;;;;17.07;83.52;101131.38;1772108;80;21010;-79
2021/09/28 09:29:45;;;;;;;73.62;46.75;;;;;;;17.12;83.44;101128.44;1734951;80;20997;-76
2021/09/28 09:32:11;;;;;;;76.82;47.70;;;;;;;17.09;83.36;101128.00;1754728;81;21029;-76
2021/09/28 09:34:37;;;;;;;81.85;50.30;;;;;;;17.14;83.41;101131.77;1774725;80;21070;-81
2021/09/28 09:37:07;;;;;;;81.57;50.50;;;;;;;17.19;83.39;101132.02;1775646;80;21140;-81
2021/09/28 09:39:50;;;;;;;80.83;51.85;;;;;;;17.30;83.36;101129.31;1783835;80;20994;-81
2021/09/28 09:42:16;;;;;;;82.97;49.33;;;;;;;17.37;83.25;101128.33;1787195;80;21035;-81
2021/09/28 09:44:42;;;;;;;80.10;49.80;;;;;;;17.40;83.19;101134.68;1777159;80;21658;-81
2021/09/28 09:47:33;;;;;;;83.75;50.50;;;;;;;17.27;83.14;101128.36;1760919;80;21042;-81
2021/09/28 09:50:15;;;;;;;78.17;50.38;;;;;;;17.24;83.16;101122.02;1793643;79;21085;-81
2021/09/28 09:53:05;;;;;;;84.92;51.33;;;;;;;17.29;83.16;101124.42;1760838;80;21031;-80
2021/09/28 09:55:34;;;;;;;87.30;52.13;;;;;;;17.42;83.11;101127.21;1773112;79;21051;-80
2021/09/28 09:58:01;;;;;;;88.47;52.55;;;;;;;17.53;83.08;101127.69;1778291;80;21550;-80
2021/09/28 10:00:28;;;;;;;85.83;51.00;;;;;;;17.87;83.06;101129.91;1776674;80;20973;-80
2021/09/28 10:02:55;;;;;;;80.05;50.83;;;;;;;17.98;82.87;101132.05;1786099;80;21393;-80
2021/09/28 10:05:21;;;;;;;82.55;53.02;;;;;;;17.88;82.71;101140.19;1790259;79;21040;-80
2021/09/28 10:07:50;;;;;;;77.60;48.63;;;;;;;17.84;82.76;101133.52;1789752;79;20965;-79
2021/09/28 10:10:19;;;;;;;84.00;50.85;;;;;;;17.91;82.71;101131.69;1760805;81;21203;-80
2021/09/28 10:12:45;;;;;;;82.70;50.52;;;;;;;17.85;82.58;101137.38;1793586;78;20994;-80
2021/09/28 10:15:15;;;;;;;78.28;51.15;;;;;;;17.78;82.51;101138.37;1794887;79;21585;-80
2021/09/28 10:17:43;;;;;;;84.95;51.85;;;;;;;17.88;82.54;101138.84;1759045;80;21006;-80
2021/09/28 10:20:23;;;;;;;84.05;50.52;;;;;;;18.04;82.40;101139.88;1759855;80;21049;-80
2021/09/28 10:22:53;;;;;;;83.50;51.53;;;;;;;18.03;82.34;101139.55;1780758;80;21029;-80
2021/09/28 10:25:31;;;;;;;79.42;51.75;;;;;;;18.18;82.29;101141.60;1777899;80;21014;-80
2021/09/28 10:28:06;;;;;;;83.72;52.08;;;;;;;18.34;82.19;101139.05;1777973;80;21336;-80
2021/09/28 10:30:38;;;;;;;78.87;49.53;;;;;;;18.34;82.08;101131.78;1828835;78;21490;-80
2021/09/28 10:33:26;;;;;;;75.28;50.23;;;;;;;18.42;82.01;101134.31;1826738;77;21054;-80
2021/09/28 10:35:56;;;;;;;75.62;49.95;;;;;;;18.50;81.87;101136.52;1832186;77;21000;-80
2021/09/28 10:38:44;;;;;;;79.30;50.90;;;;;;;18.63;81.79;101140.62;1838161;77;21007;-80
2021/09/28 10:41:42;;;;;;;76.20;51.20;;;;;;;18.77;81.69;101147.73;1844474;75;21628;-81
2021/09/28 10:44:34;;;;;;;81.57;52.25;;;;;;;18.79;81.49;101145.64;1848328;77;21018;-81
2021/09/28 10:46:58;;;;;;;85.17;54.25;;;;;;;18.78;81.38;101145.34;1847928;77;21019;-81
2021/09/28 10:49:36;;;;;;;83.25;50.95;;;;;;;18.82;81.28;101146.61;1795786;78;21109;-80
2021/09/28 10:52:26;;;;;;;76.30;51.88;;;;;;;18.72;81.18;101147.50;1801684;78;21021;-80
2021/09/28 10:55:13;;;;;;;79.77;52.60;;;;;;;18.68;81.13;101144.91;1786639;78;21935;-81
2021/09/28 10:58:09;;;;;;;80.22;51.90;;;;;;;18.70;81.06;101146.88;1796243;78;21018;-80
2021/09/28 11:00:44;;;;;;;77.70;50.88;;;;;;;18.70;80.96;101146.88;1782148;79;21066;-81
2021/09/28 11:03:11;;;;;;;83.82;54.55;;;;;;;18.59;80.87;101148.82;1779351;79;21092;-80
2021/09/28 11:05:39;;;;;;;83.82;54.23;;;;;;;18.49;80.76;101134.33;1767353;78;21517;-81
2021/09/28 11:08:07;;;;;;;80.05;53.70;;;;;;;18.56;80.71;101146.53;1759878;81;22031;-80
2021/09/28 11:10:33;;;;;;;86.57;54.08;;;;;;;18.54;80.68;101150.80;1791734;80;21014;-80
2021/09/28 11:13:11;;;;;;;88.80;56.55;;;;;;;18.53;80.58;101142.89;1791766;80;20970;-80
2021/09/28 11:15:38;;;;;;;76.82;53.58;;;;;;;18.54;80.54;101139.16;1807602;77;20991;-81
2021/09/28 11:18:12;;;;;;;80.72;52.93;;;;;;;18.57;80.51;101139.59;1834023;77;21002;-80